sensor_id;sensor_type;location;lat;lon;timestamp;temperature;humidity
4874;DHT22;2451;49.970;9.068;2023-12-22T00:02:17;5.30;99.90
4874;DHT22;2451;49.970;9.068;2023-12-22T00:04:42;5.30;99.90
4874;DHT22;2451;49.970;9.068;2023-12-22T00:07:08;5.30;99.90
4874;DHT22;2451;49.970;9.068;2023-12-22T00:09:33;5.30;99.90
4874;DHT22;2451;49.970;9.068;2023-12-22T00:11:59;5.40;99.90
4874;DHT22;2451;49.970;9.068;2023-12-22T00:14:24;5.30;99.90
4874;DHT22;2451;49.970;9.068;2023-12-22T00:16:50;5.30;99.90
4874;DHT22;2451;49.970;9.068;2023-12-22T00:19:19;5.30;99.90
4874;DHT22;2451;49.970;9.068;2023-12-22T00:21:45;5.30;99.90
4874;DHT22;2451;49.970;9.068;2023-12-22T00:24:19;5.30;99.90
4874;DHT22;2451;49.970;9.068;2023-12-22T00:26:45;5.30;99.90
4874;DHT22;2451;49.970;9.068;2023-12-22T00:29:11;5.40;99.90
4874;DHT22;2451;49.970;9.068;2023-12-22T00:31:36;5.40;99.90
4874;DHT22;2451;49.970;9.068;2023-12-22T00:34:02;5.40;99.90
4874;DHT22;2451;49.970;9.068;2023-12-22T00:36:27;5.50;99.90
4874;DHT22;2451;49.970;9.068;2023-12-22T00:38:53;5.50;99.90
4874;DHT22;2451;49.970;9.068;2023-12-22T00:41:19;5.60;99.90
4874;DHT22;2451;49.970;9.068;2023-12-22T00:43:44;5.60;99.90
4874;DHT22;2451;49.970;9.068;2023-12-22T00:46:13;5.60;99.90
4874;DHT22;2451;49.970;9.068;2023-12-22T00:48:39;5.70;99.90
4874;DHT22;2451;49.970;9.068;2023-12-22T00:51:06;5.70;99.90
4874;DHT22;2451;49.970;9.068;2023-12-22T00:53:33;5.70;99.90
4874;DHT22;2451;49.970;9.068;2023-12-22T00:55:59;5.70;99.90
4874;DHT22;2451;49.970;9.068;2023-12-22T00:58:25;5.70;99.90
4874;DHT22;2451;49.970;9.068;2023-12-22T01:00:51;5.70;99.90
4874;DHT22;2451;49.970;9.068;2023-12-22T01:03:19;5.70;99.90
4874;DHT22;2451;49.970;9.068;2023-12-22T01:05:45;5.70;99.90
4874;DHT22;2451;49.970;9.068;2023-12-22T01:08:10;5.70;99.90
4874;DHT22;2451;49.970;9.068;2023-12-22T01:10:36;5.70;99.90
4874;DHT22;2451;49.970;9.068;2023-12-22T01:13:01;5.60;99.90
4874;DHT22;2451;49.970;9.068;2023-12-22T01:15:32;5.60;99.90
4874;DHT22;2451;49.970;9.068;2023-12-22T01:17:58;5.50;99.90
4874;DHT22;2451;49.970;9.068;2023-12-22T01:20:23;5.50;99.90
4874;DHT22;2451;49.970;9.068;2023-12-22T01:22:49;5.50;99.90
4874;DHT22;2451;49.970;9.068;2023-12-22T01:25:15;5.50;99.90
4874;DHT22;2451;49.970;9.068;2023-12-22T01:27:40;5.50;99.90
4874;DHT22;2451;49.970;9.068;2023-12-22T01:30:09;5.50;99.90
4874;DHT22;2451;49.970;9.068;2023-12-22T01:32:34;5.50;99.90
4874;DHT22;2451;49.970;9.068;2023-12-22T01:35:02;5.50;99.90
4874;DHT22;2451;49.970;9.068;2023-12-22T01:37:32;5.50;99.90
4874;DHT22;2451;49.970;9.068;2023-12-22T01:39:57;5.50;99.90
4874;DHT22;2451;49.970;9.068;2023-12-22T01:42:23;5.50;99.90
4874;DHT22;2451;49.970;9.068;2023-12-22T01:44:49;5.50;99.90
4874;DHT22;2451;49.970;9.068;2023-12-22T01:47:18;5.50;99.90
4874;DHT22;2451;49.970;9.068;2023-12-22T01:49:44;5.40;99.90
4874;DHT22;2451;49.970;9.068;2023-12-22T01:52:09;5.40;99.90
4874;DHT22;2451;49.970;9.068;2023-12-22T01:54:35;5.00;99.90
4874;DHT22;2451;49.970;9.068;2023-12-22T01:57:04;4.80;99.90
4874;DHT22;2451;49.970;9.068;2023-12-22T01:59:31;4.80;99.90
4874;DHT22;2451;49.970;9.068;2023-12-22T02:02:02;4.80;99.90
4874;DHT22;2451;49.970;9.068;2023-12-22T02:04:30;4.70;99.90
4874;DHT22;2451;49.970;9.068;2023-12-22T02:06:58;4.60;99.90
4874;DHT22;2451;49.970;9.068;2023-12-22T02:09:25;4.70;99.90
4874;DHT22;2451;49.970;9.068;2023-12-22T02:11:51;4.70;99.90
4874;DHT22;2451;49.970;9.068;2023-12-22T02:14:16;4.70;99.90
4874;DHT22;2451;49.970;9.068;2023-12-22T02:17:02;4.70;99.90
4874;DHT22;2451;49.970;9.068;2023-12-22T02:19:43;4.80;99.90
4874;DHT22;2451;49.970;9.068;2023-12-22T02:22:11;4.80;99.90
4874;DHT22;2451;49.970;9.068;2023-12-22T02:24:40;4.80;99.90
4874;DHT22;2451;49.970;9.068;2023-12-22T02:27:22;4.80;99.90
4874;DHT22;2451;49.970;9.068;2023-12-22T02:30:07;4.80;99.90
4874;DHT22;2451;49.970;9.068;2023-12-22T02:32:38;4.80;99.90
4874;DHT22;2451;49.970;9.068;2023-12-22T02:35:10;4.70;99.90
4874;DHT22;2451;49.970;9.068;2023-12-22T02:37:37;4.70;99.90
4874;DHT22;2451;49.970;9.068;2023-12-22T02:40:04;4.80;99.90
4874;DHT22;2451;49.970;9.068;2023-12-22T02:42:30;4.80;99.90
4874;DHT22;2451;49.970;9.068;2023-12-22T02:44:58;4.80;99.90
4874;DHT22;2451;49.970;9.068;2023-12-22T02:47:24;4.80;99.90
4874;DHT22;2451;49.970;9.068;2023-12-22T02:49:50;4.80;99.90
4874;DHT22;2451;49.970;9.068;2023-12-22T02:52:19;4.80;99.90
4874;DHT22;2451;49.970;9.068;2023-12-22T02:54:44;4.80;99.90
4874;DHT22;2451;49.970;9.068;2023-12-22T02:57:10;4.80;99.90
4874;DHT22;2451;49.970;9.068;2023-12-22T02:59:37;4.70;99.90
4874;DHT22;2451;49.970;9.068;2023-12-22T03:02:02;4.70;99.90
4874;DHT22;2451;49.970;9.068;2023-12-22T03:04:28;4.70;99.90
4874;DHT22;2451;49.970;9.068;2023-12-22T03:06:54;4.60;99.90
4874;DHT22;2451;49.970;9.068;2023-12-22T03:09:20;4.60;99.90
4874;DHT22;2451;49.970;9.068;2023-12-22T03:11:47;4.60;99.90
4874;DHT22;2451;49.970;9.068;2023-12-22T03:14:13;4.60;99.90
4874;DHT22;2451;49.970;9.068;2023-12-22T03:16:40;4.60;99.90
4874;DHT22;2451;49.970;9.068;2023-12-22T03:19:06;4.60;99.90
4874;DHT22;2451;49.970;9.068;2023-12-22T03:21:32;4.50;99.90
4874;DHT22;2451;49.970;9.068;2023-12-22T03:23:58;4.50;99.90
4874;DHT22;2451;49.970;9.068;2023-12-22T03:26:26;4.50;99.90
4874;DHT22;2451;49.970;9.068;2023-12-22T03:28:51;4.50;99.90
4874;DHT22;2451;49.970;9.068;2023-12-22T03:31:17;4.40;99.90
4874;DHT22;2451;49.970;9.068;2023-12-22T03:33:46;4.50;99.90
4874;DHT22;2451;49.970;9.068;2023-12-22T03:36:11;4.50;99.90
4874;DHT22;2451;49.970;9.068;2023-12-22T03:38:37;4.50;99.90
4874;DHT22;2451;49.970;9.068;2023-12-22T03:41:03;4.50;99.90
4874;DHT22;2451;49.970;9.068;2023-12-22T03:43:28;4.50;99.90
4874;DHT22;2451;49.970;9.068;2023-12-22T03:45:57;4.60;99.90
4874;DHT22;2451;49.970;9.068;2023-12-22T03:48:22;4.50;99.90
4874;DHT22;2451;49.970;9.068;2023-12-22T03:50:56;4.60;99.90
4874;DHT22;2451;49.970;9.068;2023-12-22T03:53:22;4.60;99.90
4874;DHT22;2451;49.970;9.068;2023-12-22T03:55:55;4.60;99.90
4874;DHT22;2451;49.970;9.068;2023-12-22T03:58:20;4.60;99.90
4874;DHT22;2451;49.970;9.068;2023-12-22T04:00:46;4.60;99.90
4874;DHT22;2451;49.970;9.068;2023-12-22T04:03:12;4.60;99.90
4874;DHT22;2451;49.970;9.068;2023-12-22T04:05:38;4.50;99.90
4874;DHT22;2451;49.970;9.068;2023-12-22T04:08:04;4.50;99.90
4874;DHT22;2451;49.970;9.068;2023-12-22T04:10:30;4.50;99.90
4874;DHT22;2451;49.970;9.068;2023-12-22T04:12:56;4.60;99.90
4874;DHT22;2451;49.970;9.068;2023-12-22T04:15:21;4.60;99.90
4874;DHT22;2451;49.970;9.068;2023-12-22T04:17:47;4.70;99.90
4874;DHT22;2451;49.970;9.068;2023-12-22T04:20:13;4.80;99.90
4874;DHT22;2451;49.970;9.068;2023-12-22T04:22:38;4.80;99.90
4874;DHT22;2451;49.970;9.068;2023-12-22T04:25:04;4.80;99.90
4874;DHT22;2451;49.970;9.068;2023-12-22T04:27:31;4.90;99.90
4874;DHT22;2451;49.970;9.068;2023-12-22T04:29:57;4.90;99.90
4874;DHT22;2451;49.970;9.068;2023-12-22T04:32:22;4.90;99.90
4874;DHT22;2451;49.970;9.068;2023-12-22T04:34:48;5.00;99.90
4874;DHT22;2451;49.970;9.068;2023-12-22T04:37:13;5.00;99.90
4874;DHT22;2451;49.970;9.068;2023-12-22T04:39:40;5.00;99.90
4874;DHT22;2451;49.970;9.068;2023-12-22T04:42:05;5.00;99.90
4874;DHT22;2451;49.970;9.068;2023-12-22T04:44:31;5.00;99.90
4874;DHT22;2451;49.970;9.068;2023-12-22T04:46:56;5.00;99.90
4874;DHT22;2451;49.970;9.068;2023-12-22T04:49:22;5.00;99.90
4874;DHT22;2451;49.970;9.068;2023-12-22T04:51:47;5.00;99.90
4874;DHT22;2451;49.970;9.068;2023-12-22T04:54:13;5.00;99.90
4874;DHT22;2451;49.970;9.068;2023-12-22T04:56:39;5.00;99.90
4874;DHT22;2451;49.970;9.068;2023-12-22T04:59:04;5.10;99.90
4874;DHT22;2451;49.970;9.068;2023-12-22T05:01:30;5.10;99.90
4874;DHT22;2451;49.970;9.068;2023-12-22T05:03:55;5.10;99.90
4874;DHT22;2451;49.970;9.068;2023-12-22T05:06:21;5.10;99.90
4874;DHT22;2451;49.970;9.068;2023-12-22T05:08:47;5.20;99.90
4874;DHT22;2451;49.970;9.068;2023-12-22T05:11:12;5.20;99.90
4874;DHT22;2451;49.970;9.068;2023-12-22T05:13:38;5.20;99.90
4874;DHT22;2451;49.970;9.068;2023-12-22T05:16:04;5.30;99.90
4874;DHT22;2451;49.970;9.068;2023-12-22T05:18:30;5.20;99.90
4874;DHT22;2451;49.970;9.068;2023-12-22T05:20:58;5.30;99.90
4874;DHT22;2451;49.970;9.068;2023-12-22T05:23:23;5.30;99.90
4874;DHT22;2451;49.970;9.068;2023-12-22T05:25:49;5.30;99.90
4874;DHT22;2451;49.970;9.068;2023-12-22T05:28:15;5.30;99.90
4874;DHT22;2451;49.970;9.068;2023-12-22T05:30:40;5.30;99.90
4874;DHT22;2451;49.970;9.068;2023-12-22T05:33:06;5.40;99.90
4874;DHT22;2451;49.970;9.068;2023-12-22T05:35:31;5.40;99.90
4874;DHT22;2451;49.970;9.068;2023-12-22T05:37:57;5.40;99.90
4874;DHT22;2451;49.970;9.068;2023-12-22T05:40:23;5.40;99.90
4874;DHT22;2451;49.970;9.068;2023-12-22T05:42:48;5.40;99.90
4874;DHT22;2451;49.970;9.068;2023-12-22T05:45:18;5.50;99.90
4874;DHT22;2451;49.970;9.068;2023-12-22T05:47:44;5.50;99.90
4874;DHT22;2451;49.970;9.068;2023-12-22T05:50:09;5.50;99.90
4874;DHT22;2451;49.970;9.068;2023-12-22T05:52:36;5.50;99.90
4874;DHT22;2451;49.970;9.068;2023-12-22T05:55:02;5.50;99.90
4874;DHT22;2451;49.970;9.068;2023-12-22T05:57:27;5.50;99.90
4874;DHT22;2451;49.970;9.068;2023-12-22T05:59:53;5.60;99.90
4874;DHT22;2451;49.970;9.068;2023-12-22T06:02:19;5.60;99.90
4874;DHT22;2451;49.970;9.068;2023-12-22T06:04:53;5.50;99.90
4874;DHT22;2451;49.970;9.068;2023-12-22T06:07:19;5.50;99.90
4874;DHT22;2451;49.970;9.068;2023-12-22T06:09:45;5.60;99.90
4874;DHT22;2451;49.970;9.068;2023-12-22T06:12:10;5.50;99.90
4874;DHT22;2451;49.970;9.068;2023-12-22T06:14:36;5.60;99.90
4874;DHT22;2451;49.970;9.068;2023-12-22T06:17:02;5.70;99.90
4874;DHT22;2451;49.970;9.068;2023-12-22T06:19:27;5.70;99.90
4874;DHT22;2451;49.970;9.068;2023-12-22T06:21:56;5.70;99.90
4874;DHT22;2451;49.970;9.068;2023-12-22T06:24:22;5.70;99.90
4874;DHT22;2451;49.970;9.068;2023-12-22T06:26:49;5.60;99.90
4874;DHT22;2451;49.970;9.068;2023-12-22T06:29:15;5.60;99.90
4874;DHT22;2451;49.970;9.068;2023-12-22T06:31:41;5.60;99.90
4874;DHT22;2451;49.970;9.068;2023-12-22T06:34:07;5.60;99.90
4874;DHT22;2451;49.970;9.068;2023-12-22T06:36:32;5.60;99.90
4874;DHT22;2451;49.970;9.068;2023-12-22T06:38:58;5.60;99.90
4874;DHT22;2451;49.970;9.068;2023-12-22T06:41:25;5.60;99.90
4874;DHT22;2451;49.970;9.068;2023-12-22T06:43:51;5.70;99.90
4874;DHT22;2451;49.970;9.068;2023-12-22T06:46:18;5.70;99.90
4874;DHT22;2451;49.970;9.068;2023-12-22T06:48:44;5.70;99.90
4874;DHT22;2451;49.970;9.068;2023-12-22T06:51:20;5.80;99.90
4874;DHT22;2451;49.970;9.068;2023-12-22T06:53:49;5.80;99.90
4874;DHT22;2451;49.970;9.068;2023-12-22T06:56:19;5.90;99.90
4874;DHT22;2451;49.970;9.068;2023-12-22T06:58:49;5.90;99.90
4874;DHT22;2451;49.970;9.068;2023-12-22T07:01:34;5.90;99.90
4874;DHT22;2451;49.970;9.068;2023-12-22T07:04:02;6.00;99.90
4874;DHT22;2451;49.970;9.068;2023-12-22T07:06:32;6.10;99.90
4874;DHT22;2451;49.970;9.068;2023-12-22T07:11:45;6.10;99.90
4874;DHT22;2451;49.970;9.068;2023-12-22T07:14:11;6.10;99.90
4874;DHT22;2451;49.970;9.068;2023-12-22T07:16:37;6.20;99.90
4874;DHT22;2451;49.970;9.068;2023-12-22T07:19:03;6.20;99.90
4874;DHT22;2451;49.970;9.068;2023-12-22T07:21:29;6.20;99.90
4874;DHT22;2451;49.970;9.068;2023-12-22T07:23:54;6.20;99.90
4874;DHT22;2451;49.970;9.068;2023-12-22T07:26:20;6.10;99.90
4874;DHT22;2451;49.970;9.068;2023-12-22T07:28:47;6.10;99.90
4874;DHT22;2451;49.970;9.068;2023-12-22T07:31:14;6.10;99.90
4874;DHT22;2451;49.970;9.068;2023-12-22T07:33:42;6.10;99.90
4874;DHT22;2451;49.970;9.068;2023-12-22T07:36:08;6.20;99.90
4874;DHT22;2451;49.970;9.068;2023-12-22T07:38:34;6.20;99.90
4874;DHT22;2451;49.970;9.068;2023-12-22T07:40:59;6.10;99.90
4874;DHT22;2451;49.970;9.068;2023-12-22T07:43:26;6.10;99.90
4874;DHT22;2451;49.970;9.068;2023-12-22T07:45:52;6.20;99.90
4874;DHT22;2451;49.970;9.068;2023-12-22T07:48:18;6.10;99.90
4874;DHT22;2451;49.970;9.068;2023-12-22T07:50:43;6.20;99.90
4874;DHT22;2451;49.970;9.068;2023-12-22T07:53:10;6.20;99.90
4874;DHT22;2451;49.970;9.068;2023-12-22T07:55:35;6.30;99.90
4874;DHT22;2451;49.970;9.068;2023-12-22T07:58:07;6.30;99.90
4874;DHT22;2451;49.970;9.068;2023-12-22T08:00:32;6.30;99.90
4874;DHT22;2451;49.970;9.068;2023-12-22T08:02:58;6.40;99.90
4874;DHT22;2451;49.970;9.068;2023-12-22T08:05:24;6.40;99.90
4874;DHT22;2451;49.970;9.068;2023-12-22T08:07:51;6.40;99.90
4874;DHT22;2451;49.970;9.068;2023-12-22T08:10:17;6.50;99.90
4874;DHT22;2451;49.970;9.068;2023-12-22T08:12:43;6.50;99.90
4874;DHT22;2451;49.970;9.068;2023-12-22T08:15:09;6.50;99.90
4874;DHT22;2451;49.970;9.068;2023-12-22T08:17:36;6.50;99.90
4874;DHT22;2451;49.970;9.068;2023-12-22T08:20:03;6.50;99.90
4874;DHT22;2451;49.970;9.068;2023-12-22T08:22:29;6.50;99.90
4874;DHT22;2451;49.970;9.068;2023-12-22T08:24:55;6.50;99.90
4874;DHT22;2451;49.970;9.068;2023-12-22T08:27:20;6.60;99.90
4874;DHT22;2451;49.970;9.068;2023-12-22T08:29:46;6.60;99.90
4874;DHT22;2451;49.970;9.068;2023-12-22T08:32:12;6.70;99.90
4874;DHT22;2451;49.970;9.068;2023-12-22T08:34:38;6.70;99.90
4874;DHT22;2451;49.970;9.068;2023-12-22T08:37:03;6.70;99.90
4874;DHT22;2451;49.970;9.068;2023-12-22T08:39:29;6.70;99.90
4874;DHT22;2451;49.970;9.068;2023-12-22T08:41:55;6.70;99.90
4874;DHT22;2451;49.970;9.068;2023-12-22T08:44:20;6.70;99.90
4874;DHT22;2451;49.970;9.068;2023-12-22T08:46:46;6.70;99.90
4874;DHT22;2451;49.970;9.068;2023-12-22T08:49:12;6.70;99.90
4874;DHT22;2451;49.970;9.068;2023-12-22T08:51:37;6.70;99.90
4874;DHT22;2451;49.970;9.068;2023-12-22T08:54:03;6.80;99.90
4874;DHT22;2451;49.970;9.068;2023-12-22T08:56:31;6.80;99.90
4874;DHT22;2451;49.970;9.068;2023-12-22T08:58:57;6.90;99.90
4874;DHT22;2451;49.970;9.068;2023-12-22T09:01:25;6.90;99.90
4874;DHT22;2451;49.970;9.068;2023-12-22T09:03:51;7.00;99.90
4874;DHT22;2451;49.970;9.068;2023-12-22T09:06:19;7.00;99.90
4874;DHT22;2451;49.970;9.068;2023-12-22T09:08:45;7.00;99.90
4874;DHT22;2451;49.970;9.068;2023-12-22T09:11:12;7.00;99.90
4874;DHT22;2451;49.970;9.068;2023-12-22T09:13:38;7.00;99.90
4874;DHT22;2451;49.970;9.068;2023-12-22T09:16:04;7.00;99.90
4874;DHT22;2451;49.970;9.068;2023-12-22T09:18:30;7.00;99.90
4874;DHT22;2451;49.970;9.068;2023-12-22T09:20:59;7.00;99.90
4874;DHT22;2451;49.970;9.068;2023-12-22T09:23:25;7.00;99.90
4874;DHT22;2451;49.970;9.068;2023-12-22T09:25:55;7.00;99.90
4874;DHT22;2451;49.970;9.068;2023-12-22T09:28:24;7.00;99.90
4874;DHT22;2451;49.970;9.068;2023-12-22T09:30:50;6.90;99.90
4874;DHT22;2451;49.970;9.068;2023-12-22T09:33:16;6.90;99.90
4874;DHT22;2451;49.970;9.068;2023-12-22T09:35:42;6.90;99.90
4874;DHT22;2451;49.970;9.068;2023-12-22T09:38:10;6.80;99.90
4874;DHT22;2451;49.970;9.068;2023-12-22T09:40:38;6.80;99.90
4874;DHT22;2451;49.970;9.068;2023-12-22T09:43:06;6.80;99.90
4874;DHT22;2451;49.970;9.068;2023-12-22T09:45:33;6.70;99.90
4874;DHT22;2451;49.970;9.068;2023-12-22T09:48:00;6.70;99.90
4874;DHT22;2451;49.970;9.068;2023-12-22T09:50:28;6.70;99.90
4874;DHT22;2451;49.970;9.068;2023-12-22T09:52:55;6.60;99.90
4874;DHT22;2451;49.970;9.068;2023-12-22T09:55:22;6.60;99.90
4874;DHT22;2451;49.970;9.068;2023-12-22T09:57:49;6.60;99.90
4874;DHT22;2451;49.970;9.068;2023-12-22T10:00:16;6.60;99.90
4874;DHT22;2451;49.970;9.068;2023-12-22T10:02:43;6.50;99.90
4874;DHT22;2451;49.970;9.068;2023-12-22T10:05:11;6.50;99.90
4874;DHT22;2451;49.970;9.068;2023-12-22T10:07:39;6.50;99.90
4874;DHT22;2451;49.970;9.068;2023-12-22T10:10:05;6.40;99.90
4874;DHT22;2451;49.970;9.068;2023-12-22T10:12:34;6.40;99.90
4874;DHT22;2451;49.970;9.068;2023-12-22T10:15:00;6.40;99.90
4874;DHT22;2451;49.970;9.068;2023-12-22T10:17:27;6.40;99.90
4874;DHT22;2451;49.970;9.068;2023-12-22T10:19:53;6.40;99.90
4874;DHT22;2451;49.970;9.068;2023-12-22T10:22:19;6.50;99.90
4874;DHT22;2451;49.970;9.068;2023-12-22T10:24:46;6.50;99.90
4874;DHT22;2451;49.970;9.068;2023-12-22T10:27:14;6.70;99.90
4874;DHT22;2451;49.970;9.068;2023-12-22T10:29:40;6.70;99.90
4874;DHT22;2451;49.970;9.068;2023-12-22T10:32:08;6.80;99.90
4874;DHT22;2451;49.970;9.068;2023-12-22T10:34:36;6.90;99.90
4874;DHT22;2451;49.970;9.068;2023-12-22T10:37:02;7.00;99.90
4874;DHT22;2451;49.970;9.068;2023-12-22T10:39:31;7.00;99.90
4874;DHT22;2451;49.970;9.068;2023-12-22T10:41:58;7.10;99.90
4874;DHT22;2451;49.970;9.068;2023-12-22T10:44:24;7.10;99.90
4874;DHT22;2451;49.970;9.068;2023-12-22T10:46:51;7.20;99.90
4874;DHT22;2451;49.970;9.068;2023-12-22T10:49:17;7.20;99.90
4874;DHT22;2451;49.970;9.068;2023-12-22T10:51:42;7.30;99.90
4874;DHT22;2451;49.970;9.068;2023-12-22T10:54:08;7.30;99.90
4874;DHT22;2451;49.970;9.068;2023-12-22T10:56:34;7.30;99.90
4874;DHT22;2451;49.970;9.068;2023-12-22T10:59:00;7.40;99.90
4874;DHT22;2451;49.970;9.068;2023-12-22T11:01:28;7.40;99.90
4874;DHT22;2451;49.970;9.068;2023-12-22T11:03:58;7.40;99.90
4874;DHT22;2451;49.970;9.068;2023-12-22T11:06:27;7.50;99.90
4874;DHT22;2451;49.970;9.068;2023-12-22T11:08:56;7.50;99.90
4874;DHT22;2451;49.970;9.068;2023-12-22T11:11:32;7.50;99.90
4874;DHT22;2451;49.970;9.068;2023-12-22T11:13:59;7.60;99.90
4874;DHT22;2451;49.970;9.068;2023-12-22T11:16:28;7.60;99.90
4874;DHT22;2451;49.970;9.068;2023-12-22T11:18:54;7.60;99.90
4874;DHT22;2451;49.970;9.068;2023-12-22T11:21:24;7.60;99.90
4874;DHT22;2451;49.970;9.068;2023-12-22T11:23:51;7.70;99.90
4874;DHT22;2451;49.970;9.068;2023-12-22T11:26:19;7.80;99.90
4874;DHT22;2451;49.970;9.068;2023-12-22T11:28:46;7.80;99.90
4874;DHT22;2451;49.970;9.068;2023-12-22T11:31:12;7.80;99.90
4874;DHT22;2451;49.970;9.068;2023-12-22T11:33:40;7.80;99.90
4874;DHT22;2451;49.970;9.068;2023-12-22T11:36:08;7.90;99.90
4874;DHT22;2451;49.970;9.068;2023-12-22T11:38:35;7.90;99.90
4874;DHT22;2451;49.970;9.068;2023-12-22T11:41:01;8.00;99.90
4874;DHT22;2451;49.970;9.068;2023-12-22T11:43:27;8.00;99.90
4874;DHT22;2451;49.970;9.068;2023-12-22T11:45:53;8.10;99.90
4874;DHT22;2451;49.970;9.068;2023-12-22T11:48:19;8.10;99.90
4874;DHT22;2451;49.970;9.068;2023-12-22T11:50:46;8.20;99.90
4874;DHT22;2451;49.970;9.068;2023-12-22T11:53:22;8.20;99.90
4874;DHT22;2451;49.970;9.068;2023-12-22T11:56:14;8.20;99.90
4874;DHT22;2451;49.970;9.068;2023-12-22T11:58:47;8.20;99.90
4874;DHT22;2451;49.970;9.068;2023-12-22T12:01:18;8.20;99.90
4874;DHT22;2451;49.970;9.068;2023-12-22T12:03:59;8.30;99.90
4874;DHT22;2451;49.970;9.068;2023-12-22T12:08:57;8.30;99.90
4874;DHT22;2451;49.970;9.068;2023-12-22T12:12:08;8.30;99.90
4874;DHT22;2451;49.970;9.068;2023-12-22T12:14:13;8.30;99.90
4874;DHT22;2451;49.970;9.068;2023-12-22T12:16:39;8.30;99.90
4874;DHT22;2451;49.970;9.068;2023-12-22T12:19:08;8.30;99.90
4874;DHT22;2451;49.970;9.068;2023-12-22T12:21:34;8.20;99.90
4874;DHT22;2451;49.970;9.068;2023-12-22T12:23:59;8.20;99.90
4874;DHT22;2451;49.970;9.068;2023-12-22T12:26:25;8.20;99.90
4874;DHT22;2451;49.970;9.068;2023-12-22T12:28:52;8.20;99.90
4874;DHT22;2451;49.970;9.068;2023-12-22T12:31:18;8.20;99.90
4874;DHT22;2451;49.970;9.068;2023-12-22T12:33:44;8.10;99.90
4874;DHT22;2451;49.970;9.068;2023-12-22T12:36:11;8.10;99.90
4874;DHT22;2451;49.970;9.068;2023-12-22T12:41:28;8.10;99.90
4874;DHT22;2451;49.970;9.068;2023-12-22T12:44:03;8.10;99.90
4874;DHT22;2451;49.970;9.068;2023-12-22T12:46:37;8.10;99.90
4874;DHT22;2451;49.970;9.068;2023-12-22T12:49:12;8.10;99.90
4874;DHT22;2451;49.970;9.068;2023-12-22T12:51:42;8.10;99.90
4874;DHT22;2451;49.970;9.068;2023-12-22T12:54:10;8.10;99.90
4874;DHT22;2451;49.970;9.068;2023-12-22T12:56:41;8.10;99.90
4874;DHT22;2451;49.970;9.068;2023-12-22T12:59:08;8.20;99.90
4874;DHT22;2451;49.970;9.068;2023-12-22T13:01:41;8.20;99.90
4874;DHT22;2451;49.970;9.068;2023-12-22T13:04:06;8.20;99.90
4874;DHT22;2451;49.970;9.068;2023-12-22T13:06:32;8.20;99.90
4874;DHT22;2451;49.970;9.068;2023-12-22T13:08:59;8.20;99.90
4874;DHT22;2451;49.970;9.068;2023-12-22T13:11:31;8.30;99.90
4874;DHT22;2451;49.970;9.068;2023-12-22T13:13:58;8.30;99.90
4874;DHT22;2451;49.970;9.068;2023-12-22T13:16:24;8.30;99.90
4874;DHT22;2451;49.970;9.068;2023-12-22T13:18:57;8.40;99.90
4874;DHT22;2451;49.970;9.068;2023-12-22T13:21:24;8.40;99.90
4874;DHT22;2451;49.970;9.068;2023-12-22T13:24:15;8.40;99.90
4874;DHT22;2451;49.970;9.068;2023-12-22T13:26:41;8.40;99.90
4874;DHT22;2451;49.970;9.068;2023-12-22T13:29:08;8.40;99.90
4874;DHT22;2451;49.970;9.068;2023-12-22T13:31:37;8.40;99.90
4874;DHT22;2451;49.970;9.068;2023-12-22T13:34:11;8.30;99.90
4874;DHT22;2451;49.970;9.068;2023-12-22T13:36:38;8.30;99.90
4874;DHT22;2451;49.970;9.068;2023-12-22T13:39:05;8.20;99.90
4874;DHT22;2451;49.970;9.068;2023-12-22T13:41:41;8.20;99.90
4874;DHT22;2451;49.970;9.068;2023-12-22T13:44:10;8.20;99.90
4874;DHT22;2451;49.970;9.068;2023-12-22T13:46:36;8.10;99.90
4874;DHT22;2451;49.970;9.068;2023-12-22T13:49:06;8.10;99.90
4874;DHT22;2451;49.970;9.068;2023-12-22T13:51:44;8.10;99.90
4874;DHT22;2451;49.970;9.068;2023-12-22T13:54:10;8.10;99.90
4874;DHT22;2451;49.970;9.068;2023-12-22T13:56:37;8.10;99.90
4874;DHT22;2451;49.970;9.068;2023-12-22T13:59:05;8.10;99.90
4874;DHT22;2451;49.970;9.068;2023-12-22T14:01:31;8.10;99.90
4874;DHT22;2451;49.970;9.068;2023-12-22T14:03:58;8.10;99.90
4874;DHT22;2451;49.970;9.068;2023-12-22T14:06:28;8.10;99.90
4874;DHT22;2451;49.970;9.068;2023-12-22T14:08:54;8.10;99.90
4874;DHT22;2451;49.970;9.068;2023-12-22T14:11:20;8.10;99.90
4874;DHT22;2451;49.970;9.068;2023-12-22T14:13:46;8.10;99.90
4874;DHT22;2451;49.970;9.068;2023-12-22T14:16:11;8.20;99.90
4874;DHT22;2451;49.970;9.068;2023-12-22T14:18:37;8.20;99.90
4874;DHT22;2451;49.970;9.068;2023-12-22T14:21:03;8.30;99.90
4874;DHT22;2451;49.970;9.068;2023-12-22T14:23:30;8.30;99.90
4874;DHT22;2451;49.970;9.068;2023-12-22T14:25:56;8.30;99.90
4874;DHT22;2451;49.970;9.068;2023-12-22T14:28:22;8.40;99.90
4874;DHT22;2451;49.970;9.068;2023-12-22T14:30:47;8.30;99.90
4874;DHT22;2451;49.970;9.068;2023-12-22T14:33:13;8.40;99.90
4874;DHT22;2451;49.970;9.068;2023-12-22T14:35:39;8.40;99.90
4874;DHT22;2451;49.970;9.068;2023-12-22T14:38:05;8.40;99.90
4874;DHT22;2451;49.970;9.068;2023-12-22T14:40:30;8.40;99.90
4874;DHT22;2451;49.970;9.068;2023-12-22T14:42:56;8.40;99.90
4874;DHT22;2451;49.970;9.068;2023-12-22T14:45:24;8.40;99.90
4874;DHT22;2451;49.970;9.068;2023-12-22T14:47:50;8.40;99.90
4874;DHT22;2451;49.970;9.068;2023-12-22T14:50:16;8.40;99.90
4874;DHT22;2451;49.970;9.068;2023-12-22T14:52:42;8.40;99.90
4874;DHT22;2451;49.970;9.068;2023-12-22T14:55:08;8.40;99.90
4874;DHT22;2451;49.970;9.068;2023-12-22T14:57:34;8.40;99.90
4874;DHT22;2451;49.970;9.068;2023-12-22T15:00:06;8.40;99.90
4874;DHT22;2451;49.970;9.068;2023-12-22T15:02:31;8.40;99.90
4874;DHT22;2451;49.970;9.068;2023-12-22T15:04:57;8.50;99.90
4874;DHT22;2451;49.970;9.068;2023-12-22T15:07:23;8.50;99.90
4874;DHT22;2451;49.970;9.068;2023-12-22T15:09:48;8.50;99.90
4874;DHT22;2451;49.970;9.068;2023-12-22T15:12:17;8.60;99.90
4874;DHT22;2451;49.970;9.068;2023-12-22T15:14:47;8.60;99.90
4874;DHT22;2451;49.970;9.068;2023-12-22T15:17:13;8.60;99.90
4874;DHT22;2451;49.970;9.068;2023-12-22T15:19:43;8.70;99.90
4874;DHT22;2451;49.970;9.068;2023-12-22T15:22:09;8.70;99.90
4874;DHT22;2451;49.970;9.068;2023-12-22T15:24:36;8.70;99.90
4874;DHT22;2451;49.970;9.068;2023-12-22T15:27:05;8.70;99.90
4874;DHT22;2451;49.970;9.068;2023-12-22T15:29:31;8.70;99.90
4874;DHT22;2451;49.970;9.068;2023-12-22T15:31:56;8.80;99.90
4874;DHT22;2451;49.970;9.068;2023-12-22T15:34:25;8.80;99.90
4874;DHT22;2451;49.970;9.068;2023-12-22T15:36:51;8.80;99.90
4874;DHT22;2451;49.970;9.068;2023-12-22T15:39:17;8.80;99.90
4874;DHT22;2451;49.970;9.068;2023-12-22T15:41:42;8.80;99.90
4874;DHT22;2451;49.970;9.068;2023-12-22T15:44:08;8.80;99.90
4874;DHT22;2451;49.970;9.068;2023-12-22T15:46:33;8.80;99.90
4874;DHT22;2451;49.970;9.068;2023-12-22T15:48:59;8.80;99.90
4874;DHT22;2451;49.970;9.068;2023-12-22T15:51:26;8.80;99.90
4874;DHT22;2451;49.970;9.068;2023-12-22T15:53:51;8.80;99.90
4874;DHT22;2451;49.970;9.068;2023-12-22T15:56:17;8.90;99.90
4874;DHT22;2451;49.970;9.068;2023-12-22T15:58:44;8.90;99.90
4874;DHT22;2451;49.970;9.068;2023-12-22T16:01:10;8.90;99.90
4874;DHT22;2451;49.970;9.068;2023-12-22T16:03:43;8.90;99.90
4874;DHT22;2451;49.970;9.068;2023-12-22T16:06:13;9.00;99.90
4874;DHT22;2451;49.970;9.068;2023-12-22T16:08:39;9.00;99.90
4874;DHT22;2451;49.970;9.068;2023-12-22T16:11:05;8.90;99.90
4874;DHT22;2451;49.970;9.068;2023-12-22T16:13:31;9.00;99.90
4874;DHT22;2451;49.970;9.068;2023-12-22T16:15:57;9.00;99.90
4874;DHT22;2451;49.970;9.068;2023-12-22T16:18:23;9.00;99.90
4874;DHT22;2451;49.970;9.068;2023-12-22T16:20:49;9.00;99.90
4874;DHT22;2451;49.970;9.068;2023-12-22T16:23:14;9.00;99.90
4874;DHT22;2451;49.970;9.068;2023-12-22T16:25:43;9.00;99.90